Time;durP1;ratioP1;P1;durP2;ratioP2;P2;SDS_P1;SDS_P2;PMS_P1;PMS_P2;Temp;Humidity;BMP_temperature;BMP_pressure;BME280_temperature;BME280_humidity;BME280_pressure;Samples;Min_cycle;Max_cycle;Signal;HPM_P1;HPM_P2
2023/09/15 00:00:43;;;;;;;0.10;0.10;;;13.60;99.90;;;;;;5084035;28;20123;-78
2023/09/15 00:03:09;;;;;;;0.10;0.10;;;13.60;99.90;;;;;;5089999;28;20507;-78
2023/09/15 00:05:35;;;;;;;0.20;0.20;;;13.50;99.90;;;;;;5090185;28;20119;-78
2023/09/15 00:08:04;;;;;;;0.10;0.10;;;13.50;99.90;;;;;;5089536;28;20079;-78
2023/09/15 00:10:30;;;;;;;0.20;0.20;;;13.50;99.90;;;;;;5088337;28;20101;-78
2023/09/15 00:12:58;;;;;;;0.10;0.10;;;13.50;99.90;;;;;;5080322;28;20643;-78
2023/09/15 00:15:24;;;;;;;0.10;0.10;;;13.50;99.90;;;;;;5085323;28;20052;-78
2023/09/15 00:17:50;;;;;;;0.10;0.10;;;13.50;99.90;;;;;;5088295;28;20044;-78
2023/09/15 00:20:16;;;;;;;0.10;0.10;;;13.40;99.90;;;;;;5090664;28;20089;-78
2023/09/15 00:22:50;;;;;;;0.10;0.10;;;13.40;99.90;;;;;;5086993;28;20467;-78
2023/09/15 00:25:20;;;;;;;0.15;0.15;;;13.40;99.90;;;;;;5089195;28;20079;-78
2023/09/15 00:27:54;;;;;;;0.13;0.13;;;13.40;99.90;;;;;;5089009;28;20048;-78
2023/09/15 00:30:21;;;;;;;0.10;0.10;;;13.40;99.90;;;;;;5090670;28;20681;-78
2023/09/15 00:32:48;;;;;;;0.10;0.10;;;13.30;99.90;;;;;;5086672;28;20050;-78
2023/09/15 00:35:28;;;;;;;0.10;0.10;;;13.30;99.90;;;;;;5087068;28;20044;-78
2023/09/15 00:37:55;;;;;;;0.10;0.10;;;13.30;99.90;;;;;;5084575;28;20039;-78
2023/09/15 00:40:21;;;;;;;0.10;0.10;;;13.30;99.90;;;;;;5084921;28;20047;-78
2023/09/15 00:42:49;;;;;;;0.20;0.20;;;13.30;99.90;;;;;;5088723;28;20047;-78
2023/09/15 00:45:15;;;;;;;0.10;0.10;;;13.30;99.90;;;;;;5086124;28;20479;-78
2023/09/15 00:47:46;;;;;;;0.20;0.20;;;13.20;99.90;;;;;;5083161;28;20047;-78
2023/09/15 00:50:14;;;;;;;0.10;0.10;;;13.20;99.90;;;;;;5088287;28;20044;-78
2023/09/15 00:52:43;;;;;;;0.10;0.10;;;13.20;99.90;;;;;;5085987;28;20126;-78
2023/09/15 00:55:10;;;;;;;0.10;0.10;;;13.20;99.90;;;;;;5084889;28;20036;-78
2023/09/15 00:57:37;;;;;;;0.20;0.20;;;13.10;99.90;;;;;;5088389;28;20056;-78
2023/09/15 01:00:11;;;;;;;0.10;0.10;;;13.10;99.90;;;;;;5088724;28;20070;-78
2023/09/15 01:02:41;;;;;;;0.10;0.10;;;13.10;99.90;;;;;;5089961;28;20039;-78
2023/09/15 01:05:10;;;;;;;0.10;0.10;;;13.10;99.90;;;;;;5090199;28;20079;-78
2023/09/15 01:07:37;;;;;;;0.10;0.10;;;13.00;99.90;;;;;;5086097;28;20086;-78
2023/09/15 01:10:05;;;;;;;0.20;0.20;;;13.00;99.90;;;;;;5086433;28;20040;-78
2023/09/15 01:12:31;;;;;;;0.10;0.10;;;13.00;99.90;;;;;;5071675;28;20044;-78
2023/09/15 01:14:57;;;;;;;0.10;0.10;;;13.00;99.90;;;;;;5087061;28;20051;-78
2023/09/15 01:17:29;;;;;;;0.17;0.17;;;12.90;99.90;;;;;;5088208;28;20055;-78
2023/09/15 01:19:54;;;;;;;0.10;0.10;;;13.00;99.90;;;;;;5088348;28;20040;-78
2023/09/15 01:22:56;;;;;;;0.10;0.10;;;12.90;99.90;;;;;;5084289;28;20052;-78
2023/09/15 01:25:39;;;;;;;0.10;0.10;;;12.90;99.90;;;;;;5081154;28;20051;-78
2023/09/15 01:28:11;;;;;;;0.10;0.10;;;12.90;99.90;;;;;;5085172;28;20557;-78
2023/09/15 01:30:37;;;;;;;0.10;0.10;;;12.90;99.90;;;;;;5086414;28;20544;-77
2023/09/15 01:33:05;;;;;;;0.10;0.10;;;12.90;99.90;;;;;;5089249;28;20515;-77
2023/09/15 01:35:32;;;;;;;0.10;0.10;;;12.80;99.90;;;;;;5086926;28;20054;-76
2023/09/15 01:37:59;;;;;;;0.10;0.10;;;12.80;99.90;;;;;;5081283;28;20044;-78
2023/09/15 01:40:25;;;;;;;0.20;0.20;;;12.80;99.90;;;;;;5087883;28;20048;-77
2023/09/15 01:42:54;;;;;;;0.10;0.10;;;12.80;99.90;;;;;;5085559;28;20091;-76
2023/09/15 01:45:20;;;;;;;0.10;0.10;;;12.70;99.90;;;;;;5085540;28;20123;-77
2023/09/15 01:47:47;;;;;;;0.20;0.20;;;12.80;99.90;;;;;;5086501;28;20459;-78
2023/09/15 01:50:14;;;;;;;0.20;0.20;;;12.70;99.90;;;;;;5086356;28;20048;-77
2023/09/15 01:52:42;;;;;;;0.10;0.10;;;12.70;99.90;;;;;;5082552;28;20044;-77
2023/09/15 01:55:09;;;;;;;0.10;0.10;;;12.70;99.90;;;;;;5090201;28;20075;-77
2023/09/15 01:57:35;;;;;;;0.10;0.10;;;12.70;99.90;;;;;;5087520;28;20509;-78
2023/09/15 02:00:00;;;;;;;0.20;0.20;;;12.70;99.90;;;;;;5082917;28;20041;-77
2023/09/15 02:02:26;;;;;;;0.20;0.20;;;12.70;99.90;;;;;;5086674;28;20417;-77
2023/09/15 02:04:52;;;;;;;0.20;0.20;;;12.60;99.90;;;;;;5086935;28;20040;-78
2023/09/15 02:07:18;;;;;;;0.10;0.10;;;12.60;99.90;;;;;;5086029;28;20063;-78
2023/09/15 02:09:44;;;;;;;0.10;0.10;;;12.60;99.90;;;;;;5084542;28;20052;-78
2023/09/15 02:12:10;;;;;;;0.20;0.20;;;12.60;99.90;;;;;;5079931;28;20437;-77
2023/09/15 02:14:36;;;;;;;0.10;0.10;;;12.60;99.90;;;;;;5082555;28;20060;-77
2023/09/15 02:17:01;;;;;;;0.10;0.10;;;12.60;99.90;;;;;;5083474;28;20082;-77
2023/09/15 02:19:30;;;;;;;0.20;0.20;;;12.50;99.90;;;;;;5084782;28;20078;-78
2023/09/15 02:21:56;;;;;;;0.20;0.20;;;12.50;99.90;;;;;;5085774;28;20082;-77
2023/09/15 02:24:22;;;;;;;0.10;0.10;;;12.50;99.90;;;;;;5084761;28;20067;-77
2023/09/15 02:26:47;;;;;;;0.20;0.20;;;12.50;99.90;;;;;;5074868;28;20070;-77
2023/09/15 02:29:14;;;;;;;0.10;0.10;;;12.50;99.90;;;;;;5083974;28;20036;-77
2023/09/15 02:31:41;;;;;;;0.20;0.20;;;12.50;99.90;;;;;;5075413;28;20089;-78
2023/09/15 02:34:06;;;;;;;0.10;0.10;;;12.50;99.90;;;;;;5086844;28;20058;-78
2023/09/15 02:36:32;;;;;;;0.10;0.10;;;12.50;99.90;;;;;;5086456;28;20704;-76
2023/09/15 02:38:58;;;;;;;0.20;0.20;;;12.50;99.90;;;;;;5084863;28;20048;-77
2023/09/15 02:41:23;;;;;;;0.20;0.20;;;12.50;99.90;;;;;;5086736;28;20044;-77
2023/09/15 02:43:49;;;;;;;0.20;0.20;;;12.40;99.90;;;;;;5086997;28;20142;-77
2023/09/15 02:46:15;;;;;;;0.20;0.20;;;12.40;99.90;;;;;;5086786;28;20261;-77
2023/09/15 02:48:42;;;;;;;0.20;0.20;;;12.40;99.90;;;;;;5085849;28;20051;-77
2023/09/15 02:51:08;;;;;;;0.20;0.20;;;12.40;99.90;;;;;;5087744;28;20075;-77
2023/09/15 02:53:33;;;;;;;0.20;0.20;;;12.40;99.90;;;;;;5088115;28;20080;-77
2023/09/15 02:56:05;;;;;;;0.10;0.10;;;12.50;99.90;;;;;;5091326;28;20043;-78
2023/09/15 02:58:31;;;;;;;;;;;12.30;99.90;;;;;;5090571;28;20503;-78
2023/09/15 03:00:57;;;;;;;0.10;0.10;;;12.30;99.90;;;;;;5078592;28;19927;-77
2023/09/15 03:03:23;;;;;;;0.10;0.10;;;12.40;99.90;;;;;;5093161;28;20045;-77
2023/09/15 03:05:49;;;;;;;0.15;0.15;;;12.30;99.90;;;;;;5086681;28;20109;-77
2023/09/15 03:08:15;;;;;;;0.10;0.10;;;12.30;99.90;;;;;;5073161;28;20508;-77
2023/09/15 03:10:41;;;;;;;0.13;0.13;;;12.20;99.90;;;;;;5091075;28;20047;-77
2023/09/15 03:13:06;;;;;;;0.17;0.17;;;12.20;99.90;;;;;;5081269;28;20523;-77
2023/09/15 03:15:33;;;;;;;0.17;0.17;;;12.30;99.90;;;;;;5080430;28;20074;-78
2023/09/15 03:17:59;;;;;;;0.20;0.20;;;12.20;99.90;;;;;;5088153;28;20063;-77
2023/09/15 03:20:24;;;;;;;0.10;0.10;;;12.20;99.90;;;;;;5088363;28;20040;-77
2023/09/15 03:22:51;;;;;;;0.15;0.15;;;12.20;99.90;;;;;;5088424;28;20853;-77
2023/09/15 03:25:17;;;;;;;0.10;0.10;;;12.20;99.90;;;;;;5090476;28;20387;-77
2023/09/15 03:27:43;;;;;;;0.10;0.10;;;12.10;99.90;;;;;;5090395;28;20052;-77
2023/09/15 03:30:10;;;;;;;0.10;0.10;;;12.20;99.90;;;;;;5090421;28;20486;-77
2023/09/15 03:32:37;;;;;;;0.20;0.20;;;12.10;99.90;;;;;;5091110;28;20070;-77
2023/09/15 03:35:07;;;;;;;0.10;0.10;;;12.20;99.90;;;;;;5091154;28;20092;-77
2023/09/15 03:37:33;;;;;;;0.20;0.20;;;12.10;99.90;;;;;;5090648;28;20052;-77
2023/09/15 03:39:59;;;;;;;0.17;0.17;;;12.10;99.90;;;;;;5086394;28;20502;-77
2023/09/15 03:42:25;;;;;;;0.15;0.15;;;12.10;99.90;;;;;;5086026;28;20120;-77
2023/09/15 03:44:51;;;;;;;0.20;0.20;;;12.10;99.90;;;;;;5089853;28;20641;-77
2023/09/15 03:47:16;;;;;;;0.20;0.20;;;12.00;99.90;;;;;;5087687;28;20048;-77
2023/09/15 03:49:42;;;;;;;0.13;0.13;;;12.00;99.90;;;;;;5088319;28;20032;-77
2023/09/15 03:52:08;;;;;;;0.20;0.20;;;12.00;99.90;;;;;;5089742;28;20048;-77
2023/09/15 03:54:33;;;;;;;0.10;0.10;;;11.90;99.90;;;;;;5087942;28;20156;-77
2023/09/15 03:56:59;;;;;;;0.20;0.20;;;12.00;99.90;;;;;;5090211;28;20036;-77
2023/09/15 03:59:25;;;;;;;0.20;0.20;;;12.00;99.90;;;;;;5083374;28;20044;-77
2023/09/15 04:01:50;;;;;;;0.13;0.13;;;11.90;99.90;;;;;;5070160;28;20111;-77
2023/09/15 04:04:16;;;;;;;0.17;0.17;;;11.90;99.90;;;;;;5092935;28;20039;-77
2023/09/15 04:06:42;;;;;;;0.20;0.20;;;11.90;99.90;;;;;;5090361;28;20052;-77
2023/09/15 04:09:12;;;;;;;0.10;0.10;;;11.90;99.90;;;;;;5087527;28;20042;-77
2023/09/15 04:11:39;;;;;;;0.20;0.20;;;11.90;99.90;;;;;;5089343;28;20043;-77
2023/09/15 04:14:05;;;;;;;0.13;0.13;;;11.90;99.90;;;;;;5080056;28;20064;-77
2023/09/15 04:16:31;;;;;;;0.20;0.20;;;11.90;99.90;;;;;;5079864;28;20044;-77
2023/09/15 04:18:56;;;;;;;0.20;0.20;;;11.80;99.90;;;;;;5088914;28;20039;-77
2023/09/15 04:21:22;;;;;;;0.10;0.10;;;11.80;99.90;;;;;;5089398;28;20043;-77
2023/09/15 04:23:48;;;;;;;0.20;0.20;;;11.90;99.90;;;;;;5084725;28;20577;-77
2023/09/15 04:26:13;;;;;;;0.10;0.10;;;11.80;99.90;;;;;;5090211;28;20117;-77
2023/09/15 04:28:39;;;;;;;0.20;0.20;;;11.80;99.90;;;;;;5087732;28;20090;-77
2023/09/15 04:31:05;;;;;;;0.10;0.10;;;11.80;99.90;;;;;;5087568;28;20060;-77
2023/09/15 04:33:30;;;;;;;0.20;0.20;;;11.80;99.90;;;;;;5090607;28;20078;-77
2023/09/15 04:35:56;;;;;;;0.17;0.17;;;11.80;99.90;;;;;;5090278;28;20134;-77
2023/09/15 04:38:22;;;;;;;0.20;0.20;;;11.80;99.90;;;;;;5087091;28;20562;-77
2023/09/15 04:40:48;;;;;;;0.17;0.17;;;11.80;99.90;;;;;;5084724;28;20048;-77
2023/09/15 04:43:16;;;;;;;0.20;0.20;;;11.70;99.90;;;;;;5086776;28;20146;-76
2023/09/15 04:45:43;;;;;;;0.20;0.20;;;11.70;99.90;;;;;;5083853;28;20446;-77
2023/09/15 04:48:09;;;;;;;0.17;0.17;;;11.70;99.90;;;;;;5087075;28;20376;-77
2023/09/15 04:50:37;;;;;;;0.20;0.20;;;11.70;99.90;;;;;;5087900;28;20047;-76
2023/09/15 04:53:09;;;;;;;0.10;0.10;;;11.70;99.90;;;;;;5086587;28;20062;-77
2023/09/15 04:55:35;;;;;;;0.17;0.17;;;11.60;99.90;;;;;;5082812;28;20127;-76
2023/09/15 04:58:00;;;;;;;0.10;0.10;;;11.60;99.90;;;;;;5087344;28;20123;-77
2023/09/15 05:00:27;;;;;;;0.20;0.20;;;11.60;99.90;;;;;;5088020;28;20047;-77
2023/09/15 05:02:53;;;;;;;0.10;0.10;;;11.60;99.90;;;;;;5088365;28;20044;-76
2023/09/15 05:05:19;;;;;;;0.10;0.10;;;11.50;99.90;;;;;;5087747;28;20047;-77
2023/09/15 05:07:44;;;;;;;0.10;0.10;;;11.60;99.90;;;;;;5089039;28;20617;-77
2023/09/15 05:10:11;;;;;;;0.10;0.10;;;11.50;99.90;;;;;;5087847;28;20119;-77
2023/09/15 05:12:37;;;;;;;0.20;0.20;;;11.50;99.90;;;;;;5087879;28;20507;-77
2023/09/15 05:15:03;;;;;;;0.10;0.10;;;11.50;99.90;;;;;;5069513;28;20123;-77
2023/09/15 05:17:29;;;;;;;0.20;0.20;;;11.50;99.90;;;;;;5073090;28;20043;-77
2023/09/15 05:19:56;;;;;;;0.10;0.10;;;11.50;99.90;;;;;;5075120;28;21213;-77
2023/09/15 05:22:22;;;;;;;0.20;0.20;;;11.50;99.90;;;;;;5072424;28;20534;-77
2023/09/15 05:24:48;;;;;;;0.20;0.20;;;11.50;99.90;;;;;;5071995;28;20117;-78
2023/09/15 05:27:14;;;;;;;0.20;0.20;;;11.60;99.90;;;;;;5070843;28;20147;-77
2023/09/15 05:29:39;;;;;;;0.20;0.20;;;11.50;99.90;;;;;;5071709;28;20047;-77
2023/09/15 05:32:05;;;;;;;0.10;0.10;;;11.50;99.90;;;;;;5071574;28;20048;-77
2023/09/15 05:34:31;;;;;;;0.10;0.10;;;11.70;99.90;;;;;;5071132;28;20055;-76
2023/09/15 05:36:57;;;;;;;0.10;0.10;;;11.50;99.90;;;;;;5076089;28;20526;-77
2023/09/15 05:39:23;;;;;;;0.13;0.13;;;11.40;99.90;;;;;;5088781;28;20039;-77
2023/09/15 05:41:48;;;;;;;0.20;0.20;;;11.40;99.90;;;;;;5086721;28;20052;-78
2023/09/15 05:44:16;;;;;;;0.10;0.10;;;11.60;99.90;;;;;;5087557;28;20040;-77
2023/09/15 05:46:42;;;;;;;0.10;0.10;;;11.50;99.90;;;;;;5084406;28;20092;-77
2023/09/15 05:49:08;;;;;;;0.20;0.20;;;11.40;99.90;;;;;;5085998;28;20541;-77
2023/09/15 05:51:34;;;;;;;0.10;0.10;;;11.40;99.90;;;;;;5085740;28;20126;-77
2023/09/15 05:53:59;;;;;;;0.17;0.17;;;11.40;99.90;;;;;;5084585;28;20135;-76
2023/09/15 05:56:25;;;;;;;0.20;0.20;;;11.50;99.90;;;;;;5087375;28;20423;-76
2023/09/15 05:58:51;;;;;;;0.10;0.10;;;11.50;99.90;;;;;;5084612;28;20127;-76
2023/09/15 06:01:19;;;;;;;0.10;0.10;;;11.70;99.90;;;;;;5084081;28;20688;-76
2023/09/15 06:03:45;;;;;;;0.10;0.10;;;11.50;99.90;;;;;;5087365;28;20044;-76
2023/09/15 06:06:11;;;;;;;0.20;0.20;;;11.50;99.90;;;;;;5091625;28;20616;-77
2023/09/15 06:08:37;;;;;;;0.20;0.20;;;11.60;99.90;;;;;;5087170;28;20131;-77
2023/09/15 06:11:03;;;;;;;0.20;0.20;;;11.60;99.90;;;;;;5088028;28;20527;-78
2023/09/15 06:13:29;;;;;;;0.10;0.10;;;11.60;99.90;;;;;;5086946;28;20042;-76
2023/09/15 06:15:56;;;;;;;0.10;0.10;;;11.70;99.90;;;;;;5081007;28;20224;-76
2023/09/15 06:18:22;;;;;;;0.20;0.20;;;11.70;99.90;;;;;;5085284;28;20544;-77
2023/09/15 06:20:48;;;;;;;0.38;0.30;;;11.90;99.90;;;;;;5081056;28;20052;-77
2023/09/15 06:23:14;;;;;;;0.20;0.20;;;11.90;99.90;;;;;;5081050;28;20044;-77
2023/09/15 06:25:40;;;;;;;0.10;0.10;;;12.00;99.90;;;;;;5087393;28;20032;-77
2023/09/15 06:28:07;;;;;;;0.17;0.17;;;12.00;99.90;;;;;;5092339;28;20044;-77
2023/09/15 06:30:33;;;;;;;0.15;0.15;;;12.00;99.90;;;;;;5088012;28;20067;-77
2023/09/15 06:32:58;;;;;;;0.10;0.10;;;12.10;99.90;;;;;;5091267;28;20149;-77
2023/09/15 06:35:24;;;;;;;0.10;0.10;;;12.10;99.90;;;;;;5091799;28;20044;-77
2023/09/15 06:37:50;;;;;;;0.20;0.20;;;12.10;99.90;;;;;;5089593;28;20483;-77
2023/09/15 06:40:15;;;;;;;0.20;0.20;;;12.20;99.90;;;;;;5088662;28;21213;-77
2023/09/15 06:42:41;;;;;;;0.10;0.10;;;12.30;99.90;;;;;;5087581;28;20078;-77
2023/09/15 06:45:07;;;;;;;0.10;0.10;;;12.30;99.90;;;;;;5088601;28;20050;-77
2023/09/15 06:47:33;;;;;;;0.10;0.10;;;12.30;99.90;;;;;;5092767;28;20095;-76
2023/09/15 06:49:58;;;;;;;0.20;0.20;;;12.40;99.90;;;;;;5085245;28;20040;-76
2023/09/15 06:52:24;;;;;;;0.20;0.20;;;12.40;99.90;;;;;;5089756;28;20043;-76
2023/09/15 06:54:50;;;;;;;0.20;0.20;;;12.40;99.90;;;;;;5084850;28;20052;-77
2023/09/15 06:57:15;;;;;;;0.20;0.20;;;12.50;99.90;;;;;;5090177;28;20335;-77
2023/09/15 06:59:41;;;;;;;0.17;0.17;;;12.60;99.90;;;;;;5085506;28;20510;-78
2023/09/15 07:02:07;;;;;;;0.10;0.10;;;12.60;99.90;;;;;;5094346;28;20039;-77
2023/09/15 07:04:32;;;;;;;0.13;0.13;;;12.60;99.90;;;;;;5091388;28;20040;-78
2023/09/15 07:06:58;;;;;;;0.20;0.20;;;12.70;99.90;;;;;;5092290;28;20146;-78
2023/09/15 07:09:24;;;;;;;0.10;0.10;;;12.80;99.90;;;;;;5090439;28;20071;-78
2023/09/15 07:11:50;;;;;;;0.20;0.20;;;12.80;99.90;;;;;;5083997;28;20098;-78
2023/09/15 07:14:16;;;;;;;0.20;0.20;;;12.80;99.90;;;;;;5087598;28;20423;-78
2023/09/15 07:16:43;;;;;;;0.20;0.20;;;12.90;99.90;;;;;;5083270;28;20059;-78
2023/09/15 07:19:09;;;;;;;0.20;0.20;;;13.00;99.90;;;;;;5085952;28;20751;-78
2023/09/15 07:21:40;;;;;;;0.20;0.20;;;13.00;99.90;;;;;;5089186;28;20052;-78
2023/09/15 07:24:07;;;;;;;0.20;0.20;;;13.10;99.90;;;;;;5090282;28;20437;-78
2023/09/15 07:26:32;;;;;;;0.15;0.15;;;13.10;99.90;;;;;;5091209;28;20051;-78
2023/09/15 07:28:58;;;;;;;0.20;0.20;;;13.20;99.90;;;;;;5090861;28;20048;-79
2023/09/15 07:31:24;;;;;;;0.17;0.17;;;13.20;99.90;;;;;;5092251;28;20032;-77
2023/09/15 07:33:49;;;;;;;0.10;0.10;;;13.30;99.90;;;;;;5084516;28;20174;-77
2023/09/15 07:36:15;;;;;;;0.20;0.20;;;13.30;99.90;;;;;;5092266;28;20088;-78
2023/09/15 07:38:41;;;;;;;0.20;0.20;;;13.40;99.90;;;;;;5088763;28;20139;-77
2023/09/15 07:41:06;;;;;;;0.20;0.20;;;13.50;99.90;;;;;;5090948;28;20036;-78
2023/09/15 07:43:32;;;;;;;0.17;0.17;;;13.50;99.90;;;;;;5090170;28;20692;-77
2023/09/15 07:45:58;;;;;;;0.10;0.10;;;13.50;99.90;;;;;;5092171;28;20044;-78
2023/09/15 07:48:23;;;;;;;0.20;0.20;;;13.70;99.90;;;;;;5070410;28;20051;-78
2023/09/15 07:50:52;;;;;;;0.17;0.17;;;13.70;99.90;;;;;;5071508;28;20080;-78
2023/09/15 07:53:21;;;;;;;0.17;0.17;;;13.70;99.90;;;;;;5088278;28;20040;-78
2023/09/15 07:55:47;;;;;;;0.10;0.10;;;13.80;99.90;;;;;;5090183;28;20044;-78
2023/09/15 07:58:12;;;;;;;0.10;0.10;;;13.80;99.90;;;;;;5090234;28;20054;-77
2023/09/15 08:00:38;;;;;;;0.15;0.15;;;13.90;99.90;;;;;;5086193;28;20036;-78
2023/09/15 08:03:04;;;;;;;0.20;0.20;;;13.90;99.90;;;;;;5085811;28;20042;-78
2023/09/15 08:05:29;;;;;;;0.10;0.10;;;14.00;99.90;;;;;;5081471;28;20152;-78
2023/09/15 08:07:55;;;;;;;0.20;0.20;;;14.10;99.90;;;;;;5088851;28;20135;-78
2023/09/15 08:10:22;;;;;;;0.13;0.13;;;14.10;99.90;;;;;;5089472;28;20090;-78
2023/09/15 08:12:52;;;;;;;0.20;0.20;;;14.20;99.90;;;;;;5090458;28;20055;-78
2023/09/15 08:15:19;;;;;;;0.20;0.20;;;14.20;99.90;;;;;;5090564;28;20044;-78
2023/09/15 08:17:46;;;;;;;0.10;0.10;;;14.30;99.90;;;;;;5071599;28;20403;-78
2023/09/15 08:20:11;;;;;;;0.20;0.20;;;14.40;99.90;;;;;;5089447;28;20097;-78
2023/09/15 08:22:38;;;;;;;0.20;0.20;;;14.40;99.90;;;;;;5089903;28;20475;-78
2023/09/15 08:25:10;;;;;;;0.20;0.20;;;14.50;99.90;;;;;;5087983;28;20075;-78
2023/09/15 08:27:39;;;;;;;0.20;0.20;;;14.60;99.90;;;;;;5089600;28;20036;-78
2023/09/15 08:30:08;;;;;;;0.10;0.10;;;14.60;99.90;;;;;;5090617;28;20388;-78
2023/09/15 08:32:34;;;;;;;0.17;0.17;;;14.70;99.90;;;;;;5089493;28;20059;-78
2023/09/15 08:35:00;;;;;;;0.17;0.17;;;14.80;99.90;;;;;;5089951;28;20097;-78
2023/09/15 08:37:26;;;;;;;0.15;0.15;;;14.90;99.90;;;;;;5090603;28;20040;-78
2023/09/15 08:39:51;;;;;;;0.10;0.10;;;14.90;99.90;;;;;;5089461;28;20071;-78
2023/09/15 08:42:27;;;;;;;0.10;0.10;;;15.00;99.90;;;;;;5089507;28;20537;-77
2023/09/15 08:44:54;;;;;;;0.10;0.10;;;15.10;99.90;;;;;;5087922;28;20039;-78
2023/09/15 08:47:24;;;;;;;0.20;0.20;;;15.20;99.90;;;;;;5088486;28;20071;-78
2023/09/15 08:49:51;;;;;;;0.20;0.20;;;15.20;99.90;;;;;;5089210;28;20048;-77
2023/09/15 08:52:18;;;;;;;0.10;0.10;;;15.30;99.90;;;;;;5088498;28;20070;-78
2023/09/15 08:54:45;;;;;;;0.10;0.10;;;15.40;99.90;;;;;;5089302;28;20052;-78
2023/09/15 08:57:11;;;;;;;0.30;0.30;;;15.50;99.90;;;;;;5089328;28;20048;-78
2023/09/15 08:59:38;;;;;;;0.20;0.20;;;15.60;99.90;;;;;;5088071;28;20101;-78
2023/09/15 09:02:04;;;;;;;0.10;0.10;;;15.70;99.90;;;;;;5088515;28;20517;-78
2023/09/15 09:04:30;;;;;;;0.13;0.13;;;15.70;99.90;;;;;;5090745;28;20079;-78
2023/09/15 09:07:00;;;;;;;0.20;0.20;;;15.80;99.90;;;;;;5088825;28;20044;-78
2023/09/15 09:09:26;;;;;;;0.20;0.20;;;15.80;99.90;;;;;;5088453;28;20033;-78
2023/09/15 09:11:52;;;;;;;0.17;0.17;;;15.90;99.90;;;;;;5089207;28;20071;-77
2023/09/15 09:14:18;;;;;;;0.10;0.10;;;16.00;99.90;;;;;;5088088;28;20040;-77
2023/09/15 09:16:43;;;;;;;0.20;0.20;;;16.10;99.90;;;;;;5089054;28;20132;-77
2023/09/15 09:19:10;;;;;;;0.17;0.17;;;16.20;99.90;;;;;;5084234;28;20054;-77
2023/09/15 09:21:37;;;;;;;0.10;0.10;;;16.20;99.90;;;;;;5088339;28;20044;-78
2023/09/15 09:24:03;;;;;;;0.17;0.17;;;16.30;99.90;;;;;;5087290;28;20047;-78
2023/09/15 09:26:29;;;;;;;0.10;0.10;;;16.40;99.90;;;;;;5088263;28;20566;-77
2023/09/15 09:28:59;;;;;;;0.20;0.20;;;16.50;99.90;;;;;;5088849;28;20051;-78
2023/09/15 09:31:26;;;;;;;0.17;0.17;;;16.50;99.90;;;;;;5088662;28;20051;-77
2023/09/15 09:33:53;;;;;;;0.20;0.20;;;16.60;99.90;;;;;;5087876;28;20048;-78
2023/09/15 09:36:19;;;;;;;0.10;0.10;;;16.70;99.90;;;;;;5089600;28;20161;-77
2023/09/15 09:38:47;;;;;;;0.20;0.20;;;16.80;99.90;;;;;;5087948;28;20085;-77
2023/09/15 09:41:15;;;;;;;0.20;0.20;;;16.80;99.90;;;;;;5089072;28;20044;-77
2023/09/15 09:43:48;;;;;;;0.20;0.20;;;16.90;99.90;;;;;;5089201;28;20502;-77
2023/09/15 09:46:23;;;;;;;0.20;0.20;;;17.00;99.90;;;;;;5088152;28;20044;-77
2023/09/15 09:48:50;;;;;;;0.20;0.20;;;17.10;99.90;;;;;;5089064;28;20044;-78
2023/09/15 09:51:17;;;;;;;0.20;0.20;;;17.20;99.90;;;;;;5086492;28;20089;-76
2023/09/15 09:53:43;;;;;;;0.20;0.20;;;17.30;99.90;;;;;;5085315;28;20040;-76
2023/09/15 09:56:09;;;;;;;0.20;0.20;;;17.40;99.90;;;;;;5108714;28;20059;-76
2023/09/15 09:58:38;;;;;;;0.20;0.20;;;17.40;99.90;;;;;;5092676;28;20047;-77
2023/09/15 10:01:06;;;;;;;0.20;0.20;;;17.50;99.90;;;;;;5077682;28;20044;-77
2023/09/15 10:03:35;;;;;;;0.20;0.20;;;17.50;99.90;;;;;;5080877;28;20119;-77
2023/09/15 10:06:03;;;;;;;0.20;0.20;;;17.70;99.90;;;;;;5092153;28;20096;-77
2023/09/15 10:08:30;;;;;;;0.30;0.30;;;17.70;99.90;;;;;;5090758;28;20111;-77
2023/09/15 10:10:56;;;;;;;0.15;0.15;;;17.80;99.90;;;;;;5095163;28;20093;-77
2023/09/15 10:13:23;;;;;;;0.20;0.20;;;17.70;99.90;;;;;;5088372;28;20033;-77
2023/09/15 10:15:51;;;;;;;0.20;0.20;;;17.90;99.90;;;;;;5087720;28;20052;-76
2023/09/15 10:18:19;;;;;;;0.20;0.20;;;18.00;99.90;;;;;;5090515;28;20061;-77
2023/09/15 10:20:48;;;;;;;0.20;0.20;;;18.10;99.90;;;;;;5087407;28;20056;-77
2023/09/15 10:23:14;;;;;;;0.20;0.20;;;18.20;99.90;;;;;;5090132;28;20395;-77
2023/09/15 10:25:53;;;;;;;0.20;0.20;;;18.30;99.90;;;;;;5095569;28;20036;-77
2023/09/15 10:28:22;;;;;;;0.20;0.20;;;18.30;99.90;;;;;;5083770;28;20514;-77
2023/09/15 10:30:52;;;;;;;0.10;0.10;;;18.40;99.90;;;;;;5090568;28;20079;-78
2023/09/15 10:33:22;;;;;;;0.20;0.20;;;18.50;99.90;;;;;;5091309;28;20436;-77
2023/09/15 10:35:48;;;;;;;0.20;0.20;;;18.50;99.90;;;;;;5088397;28;20083;-78
2023/09/15 10:38:29;;;;;;;0.20;0.20;;;18.60;99.90;;;;;;5086925;28;20575;-78
2023/09/15 10:40:58;;;;;;;0.20;0.20;;;18.70;99.90;;;;;;5085865;28;20095;-78
2023/09/15 10:43:23;;;;;;;0.28;0.28;;;18.80;99.90;;;;;;5089746;28;20122;-77
2023/09/15 10:46:02;;;;;;;0.40;0.40;;;18.80;99.90;;;;;;5091341;28;20119;-76
2023/09/15 10:48:47;;;;;;;0.20;0.20;;;18.90;99.90;;;;;;5092999;28;20051;-76
2023/09/15 10:51:16;;;;;;;0.20;0.20;;;19.00;99.90;;;;;;5089352;28;20104;-75
2023/09/15 10:53:43;;;;;;;0.20;0.20;;;19.10;99.90;;;;;;5083885;28;20040;-76
2023/09/15 10:56:09;;;;;;;0.20;0.20;;;19.10;99.90;;;;;;5092005;28;20048;-76
2023/09/15 10:58:36;;;;;;;0.20;0.20;;;19.20;99.90;;;;;;5089198;28;20085;-76
2023/09/15 11:01:03;;;;;;;0.20;0.20;;;19.30;99.90;;;;;;5088646;28;20055;-76
2023/09/15 11:03:29;;;;;;;0.20;0.20;;;19.50;99.90;;;;;;5090366;28;20114;-77
2023/09/15 11:05:55;;;;;;;0.20;0.20;;;19.40;99.90;;;;;;5087831;28;21546;-79
2023/09/15 11:08:23;;;;;;;0.20;0.20;;;19.50;99.90;;;;;;5092189;28;20550;-79
2023/09/15 11:10:58;;;;;;;0.20;0.20;;;19.60;99.90;;;;;;5087852;28;20089;-79
2023/09/15 11:13:23;;;;;;;0.20;0.20;;;19.70;99.90;;;;;;5084370;28;20066;-79
2023/09/15 11:15:49;;;;;;;0.20;0.20;;;19.80;99.90;;;;;;5082104;28;20044;-79
2023/09/15 11:18:15;;;;;;;0.20;0.20;;;19.90;99.90;;;;;;5088485;28;20469;-79
2023/09/15 11:20:40;;;;;;;0.20;0.20;;;19.90;99.90;;;;;;5080009;28;20037;-78
2023/09/15 11:23:06;;;;;;;0.20;0.20;;;20.00;99.90;;;;;;5075000;28;20100;-79
2023/09/15 11:25:35;;;;;;;0.20;0.20;;;20.10;99.90;;;;;;5090367;28;20421;-80
2023/09/15 11:28:01;;;;;;;0.15;0.15;;;20.20;99.90;;;;;;5089061;28;20048;-80
2023/09/15 11:30:28;;;;;;;0.20;0.20;;;20.30;99.90;;;;;;5090562;28;20051;-80
2023/09/15 11:32:54;;;;;;;0.20;0.20;;;20.40;99.90;;;;;;5088208;28;20111;-80
2023/09/15 11:35:23;;;;;;;0.30;0.30;;;20.50;99.90;;;;;;5084903;28;20040;-79
2023/09/15 11:37:49;;;;;;;0.20;0.20;;;20.60;99.90;;;;;;5091263;28;20150;-80
2023/09/15 11:40:24;;;;;;;0.30;0.30;;;20.70;99.90;;;;;;5080662;28;20538;-79
2023/09/15 11:42:54;;;;;;;0.20;0.20;;;20.80;99.90;;;;;;5088404;28;20079;-79
2023/09/15 11:45:21;;;;;;;0.20;0.20;;;20.90;99.90;;;;;;5085105;28;20040;-80
2023/09/15 11:47:48;;;;;;;0.22;0.22;;;21.00;99.90;;;;;;5076156;28;20064;-79
2023/09/15 11:50:15;;;;;;;0.20;0.20;;;21.10;99.90;;;;;;5087205;28;20360;-80
2023/09/15 11:52:41;;;;;;;0.20;0.20;;;21.30;99.90;;;;;;5090352;28;20075;-80
2023/09/15 11:55:20;;;;;;;0.20;0.20;;;21.40;99.90;;;;;;5084660;28;20086;-81
2023/09/15 11:57:46;;;;;;;0.20;0.20;;;21.60;99.90;;;;;;5090605;28;20043;-81
2023/09/15 12:00:16;;;;;;;0.20;0.20;;;21.90;99.90;;;;;;5090120;28;20505;-80
2023/09/15 12:02:46;;;;;;;0.20;0.20;;;22.10;99.90;;;;;;5084669;28;20928;-80
2023/09/15 12:05:18;;;;;;;0.20;0.20;;;22.40;99.90;;;;;;5089364;28;20352;-79
2023/09/15 12:07:44;;;;;;;0.20;0.20;;;22.60;99.90;;;;;;5090154;28;20131;-80
2023/09/15 12:10:18;;;;;;;0.20;0.20;;;22.80;99.90;;;;;;5088160;28;20085;-80
2023/09/15 12:12:45;;;;;;;0.20;0.20;;;22.90;99.90;;;;;;5090296;28;20455;-80
2023/09/15 12:15:15;;;;;;;0.20;0.20;;;23.10;99.90;;;;;;5088929;28;20059;-80
2023/09/15 12:17:44;;;;;;;0.20;0.20;;;23.30;99.90;;;;;;5090009;28;20047;-80
2023/09/15 12:20:11;;;;;;;0.20;0.20;;;23.40;99.90;;;;;;5090305;28;20036;-79
2023/09/15 12:22:41;;;;;;;0.30;0.30;;;23.60;99.90;;;;;;5081324;28;20043;-80
2023/09/15 12:25:10;;;;;;;0.20;0.20;;;23.70;99.90;;;;;;5087949;28;20052;-80
2023/09/15 12:27:40;;;;;;;0.20;0.20;;;23.80;99.90;;;;;;5091588;28;20536;-80
2023/09/15 12:30:11;;;;;;;0.20;0.20;;;23.90;99.90;;;;;;5089194;28;20495;-80
2023/09/15 12:32:37;;;;;;;0.20;0.20;;;24.10;99.90;;;;;;5089901;28;20040;-80
2023/09/15 12:35:14;;;;;;;0.20;0.20;;;24.20;99.90;;;;;;5089844;28;20075;-80
2023/09/15 12:37:44;;;;;;;0.20;0.20;;;24.40;99.90;;;;;;5088857;28;20044;-80
2023/09/15 12:40:11;;;;;;;;;;;24.50;99.90;;;;;;5094686;28;20047;-80
2023/09/15 12:42:37;;;;;;;0.20;0.20;;;24.60;99.90;;;;;;5089495;28;19920;-81
2023/09/15 12:45:04;;;;;;;0.20;0.20;;;24.80;99.90;;;;;;5088655;28;20130;-79
2023/09/15 12:47:30;;;;;;;0.20;0.20;;;24.90;99.90;;;;;;5092902;28;20043;-80